• Join FlightAware (Why Join?)
  • Login
  • US Flag 
08:07PM EDT


 

Airport Tracker/Info


-or-


 

Live Flight TrackerFlight Track Log ✈ SKW5476 ✈ 03-May-2013 ✈ KSFO - KRDM

Flight Track Log - Related Links

Times and Time Zones

All times are in EDT time to prevent confusion due to time zone crossing. See the SKW5476 flight status page for this flight to view local times or setup timezone preferences in your user account.

Time Position Orientation Groundspeed Altitude Reporting Facility
EDT Latitude Longitude Course Direction KTS MPH feet Rate Location/Type
03:05PM 37.6667 -122.3667 North 156 180 1,600  Level Northern Cal TRACON
03:06PM 37.6908 -122.3628 North 164 189 2,500 1,320 Climbing Oakland Center
03:07PM 37.7425 -122.3656 358° North 181 208 3,900 1,380 Climbing Oakland Center
03:08PM 37.9046 -122.3737 345° North  Level FlightAware Approximate
03:08PM 37.7922 -122.3783 349° North 186 214 5,400  Level Oakland Center
03:09PM 37.9717 -122.3667 North  Level FlightAware Approximate
03:09PM 37.8461 -122.3778 360° North 191 220 6,800  Level Oakland Center
03:10PM 38.0420 -122.3667 North  Level FlightAware Approximate
03:10PM 37.9006 -122.3806 358° North 196 226 8,000  Level Oakland Center
03:11PM 37.9586 -122.3764 North 208 239 9,300 1,320 Climbing Oakland Center
03:12PM 38.0286 -122.3639 North 212 244 10,900 1,320 Climbing Oakland Center
03:13PM 38.0864 -122.3550 North 210 242 12,200 1,320 Climbing Oakland Center
03:14PM 38.1564 -122.3442 North 212 244 13,700 1,200 Climbing Oakland Center
03:15PM 38.2131 -122.3347 North 208 239 14,700 960 Climbing Oakland Center
03:16PM 38.2733 -122.3264 North 215 247 15,700 960 Climbing Oakland Center
03:17PM 38.3322 -122.3183 North 213 245 16,700 960 Climbing Oakland Center
03:18PM 38.3908 -122.3056 10° North 213 245 17,700 900 Climbing Oakland Center
03:19PM 38.4478 -122.2964 North 209 241 18,600 780 Climbing Oakland Center
03:20PM 38.5056 -122.2875 North 209 241 19,400 780 Climbing Oakland Center
03:21PM 38.5783 -122.2778 North 219 252 20,300 780 Climbing Oakland Center
03:22PM 38.6367 -122.2686 North 215 247 21,100 720 Climbing Oakland Center
03:23PM 38.6981 -122.2603 North 218 251 21,800 600 Climbing Oakland Center
03:24PM 38.7583 -122.2503 North 218 251 22,400 600 Climbing Oakland Center
03:25PM 38.8208 -122.2397 North 226 260 23,100 660 Climbing Oakland Center
03:26PM 38.8814 -122.2297 North 221 254 23,800 480 Climbing Oakland Center
03:27PM 38.9422 -122.2219 North 219 252 24,100 120 Climbing Oakland Center
03:28PM 39.0092 -122.2100 North 242 278 24,100  Level Oakland Center
03:29PM 39.0769 -122.1983 North 246 283 24,100  Level Oakland Center
03:30PM 39.1442 -122.1897 North 242 278 24,100  Level Oakland Center
03:31PM 39.2225 -122.1781 North 239 275 24,100  Level Oakland Center
03:32PM 39.2872 -122.1667 North 235 270 24,100  Level Oakland Center
03:33PM 39.3519 -122.1561 North 235 270 24,100  Level Oakland Center
03:34PM 39.4169 -122.1469 North 236 272 24,100  Level Oakland Center
03:35PM 39.4817 -122.1364 North 236 272 24,100  Level Oakland Center
03:36PM 39.5472 -122.1264 North 234 269 24,100  Level Oakland Center
03:37PM 39.6106 -122.1147 North 231 266 24,100  Level Oakland Center
03:39PM 39.6739 -122.1033 North 231 266 24,100  Level Oakland Center
03:40PM 39.7367 -122.0925 North 228 262 24,100  Level Oakland Center
03:41PM 39.8119 -122.0792 North 230 265 24,100  Level Oakland Center
03:42PM 39.8744 -122.0692 North 228 262 24,100  Level Oakland Center
03:43PM 39.9367 -122.0600 North 226 260 24,100  Level Oakland Center
03:44PM 39.9986 -122.0497 North 227 261 24,100  Level Oakland Center
03:45PM 40.0597 -122.0386 North 226 260 24,100  Level Oakland Center
03:46PM 40.1222 -122.0283 North 228 262 24,100  Level Oakland Center
03:47PM 40.1964 -122.0142 North 227 261 24,100  Level Oakland Center
03:48PM 40.2592 -122.0044 North 228 262 24,100  Level Oakland Center
03:49PM 40.3214 -121.9956 North 226 260 24,100  Level Oakland Center
03:50PM 40.3833 -121.9850 North 226 260 24,100  Level Oakland Center
03:51PM 40.4464 -121.9742 North 230 265 24,100  Level Oakland Center
03:52PM 40.5078 -121.9642 North 225 259 24,100  Level Oakland Center
03:53PM 40.5817 -121.9531 North 222 255 24,100  Level Oakland Center
03:54PM 40.6436 -121.9419 North 225 259 24,100  Level Oakland Center
03:55PM 40.7058 -121.9322 North 226 260 24,100  Level Oakland Center
03:56PM 40.7681 -121.9214 North 227 261 24,100  Level Oakland Center
03:57PM 40.8303 -121.9106 North 225 259 24,100  Level Oakland Center
03:58PM 40.8925 -121.8997 North 224 258 24,100  Level Oakland Center
03:59PM 40.9547 -121.8894 North 225 259 24,100  Level Oakland Center
04:00PM 41.0303 -121.8764 North 227 261 24,100  Level Oakland Center
04:01PM 41.0936 -121.8681 North 228 262 24,100  Level Oakland Center
04:02PM 41.1447 -121.8622 North 229 264 24,100  Level Seattle Center
04:03PM 41.2083 -121.8486 North 228 262 24,100  Level Seattle Center
04:04PM 41.2722 -121.8386 North 231 266 24,100  Level Seattle Center
04:05PM 41.3350 -121.8272 North 228 262 24,100  Level Seattle Center
04:06PM 41.3967 -121.8178 North 225 259 24,100  Level Seattle Center
04:07PM 41.4597 -121.8061 North 227 261 24,100  Level Seattle Center
04:08PM 41.5219 -121.7958 North 226 260 24,100  Level Seattle Center
04:09PM 41.5836 -121.7861 North 224 258 24,100  Level Seattle Center
04:10PM 41.6589 -121.7711 North 229 264 24,100  Level Seattle Center
04:11PM 41.7228 -121.7611 North 231 266 24,100  Level Seattle Center
04:12PM 41.7847 -121.7497 North 228 262 24,100  Level Seattle Center
04:13PM 41.8478 -121.7389 North 229 264 24,100  Level Seattle Center
04:15PM 41.9725 -121.7158 North 227 261 24,100  Level Seattle Center
04:16PM 42.0344 -121.7053 North 227 261 24,100  Level Seattle Center
04:17PM 42.0958 -121.6958 North 223 257 24,100  Level Seattle Center
04:18PM 42.1575 -121.6839 North 225 259 24,100  Level Seattle Center
04:19PM 42.2314 -121.6711 North 223 257 24,100  Level Seattle Center
04:20PM 42.2933 -121.6603 North 225 259 24,100  Level Seattle Center
04:21PM 42.3547 -121.6494 North 224 258 24,100  Level Seattle Center
04:22PM 42.4181 -121.6381 North 228 262 24,100  Level Seattle Center
04:23PM 42.4800 -121.6261 North 226 260 24,100  Level Seattle Center
04:24PM 42.5436 -121.6153 North 229 264 24,100  Level Seattle Center
04:25PM 42.6075 -121.6044 North 230 265 24,100  Level Seattle Center
04:26PM 42.6708 -121.5931 North 228 262 24,100 -480 Level Seattle Center
04:27PM 42.7369 -121.5803 North 237 273 23,200 -1,140 Descending Seattle Center
04:28PM 42.8089 -121.5681 North 257 296 21,800 -1,320 Descending Seattle Center
04:30PM 42.8819 -121.5569 North 262 302 20,600 -1,320 Descending Seattle Center
04:31PM 42.9683 -121.5394 North 260 299 19,200 -1,380 Descending Seattle Center
04:32PM 43.0392 -121.5297 North 257 296 17,900 -1,140 Descending Seattle Center
04:33PM 43.1094 -121.5175 North 256 295 17,000 -1,140 Descending Seattle Center
04:34PM 43.1803 -121.5372 349° North 259 298 15,600 -1,320 Descending Seattle Center
04:35PM 43.2522 -121.5464 355° North 259 298 14,400 -1,140 Descending Seattle Center
04:36PM 43.3217 -121.5264 12° North 255 293 13,300 -1,140 Descending Seattle Center
04:37PM 43.3914 -121.5108 North 254 292 12,200 -600 Descending Seattle Center
04:38PM 43.4583 -121.4961 North 247 284 12,100 -60 Descending Seattle Center
04:39PM 43.5233 -121.4789 11° North 240 276 12,100  Level Seattle Center
04:40PM 43.5961 -121.4553 13° North 237 273 12,100  Level Seattle Center
04:41PM 43.6592 -121.4242 20° North 240 276 12,100  Level Seattle Center
04:42PM 43.7222 -121.3967 17° North 237 273 12,100  Level Seattle Center
04:43PM 43.7847 -121.3678 18° North 237 273 12,100  Level Seattle Center
04:44PM 43.8469 -121.3381 19° North 237 273 12,100 -180 Level Seattle Center
04:45PM 43.9089 -121.3103 18° North 235 270 11,800 -780 Descending Seattle Center
04:46PM 43.9728 -121.2800 19° North 240 276 10,600 -1,260 Descending Seattle Center
04:47PM 44.0372 -121.2506 18° North 244 281 9,300 -1,440 Descending Seattle Center
04:48PM 44.1000 -121.2217 18° North 239 275 7,700 -1,500 Descending Seattle Center
04:49PM 44.1481 -121.1658 40° Northeast 233 268 6,300 -1,380 Descending Seattle Center